Πλησιέστερες Αναφορές METAR

 

LGTS - Thessaloniki/Makedonia-Elev 7m
Απόσταση από σταθμό: Ν 13km
Ενημερώθηκε: 23/06/2018 19:50
Διάσπαρτα Νέφη
Διάσπαρτα Νέφη
 Ανεμοι από ΒΒΔ
Ανεμος: ΒΒΔ 19 km/h, Ριπή: 37 km/h
Θερμοκρασία: 25°C
Σημείο Δρόσου: 8°C
Υγρασία: 34%
Βαρόμετρο: 1013 hPa
Νέφωση: Διάσπαρτα Νέφη
Ορατότητα: 10 km
Λεπτομέρειες Νεφών: Διάσπαρτα Νέφη 762 m
2018/06/23 16:50 LGTS 231650Z 34010G20KT 9999 FEW025 25/08 Q1013 NOSIG
LGAV - Athens/Elef. Venizelos-Elev 94m
Απόσταση από σταθμό: ΝΝΑ 312km
Ενημερώθηκε: 23/06/2018 19:50
Μερικώς νεφελώδης
Μερικώς νεφελώδης
 Ανεμοι από ΑΒΑ
Ανεμος: ΑΒΑ 19 km/h
Θερμοκρασία: 26°C
Σημείο Δρόσου: 16°C
Υγρασία: 54%
Βαρόμετρο: 1012 hPa
Νέφωση: Μερικώς νεφελώδης
Ορατότητα: 10 km
Λεπτομέρειες Νεφών: Διάσπαρτα Νέφη 610 m
Μερικώς νεφελώδης 914 m
2018/06/23 16:50 LGAV 231650Z 06010KT 9999 FEW020TCU SCT030 26/16 Q1012 NOSIG
 
LGAL - Alexandroupolis-Elev 3m
Απόσταση από σταθμό: Α 251km
Ενημερώθηκε: 23/06/2018 20:20
Μερικώς νεφελώδης
Μερικώς νεφελώδης
 Ανεμοι από ΑΒΑ
Ανεμος: ΑΒΑ 26 km/h
Θερμοκρασία: 21°C
Σημείο Δρόσου: 9°C
Υγρασία: 46%
Βαρόμετρο: 1014 hPa
Νέφωση: Μερικώς νεφελώδης
Ορατότητα: 10 km
Λεπτομέρειες Νεφών: Μερικώς νεφελώδης 1067 m
2018/06/23 17:20 LGAL 231720Z 06014KT 9999 SCT035 21/09 Q1014
LGKV - Kavala/Crysoupolis-Elev 5m
Απόσταση από σταθμό: ΑΒΑ 144km
Ενημερώθηκε: 23/06/2018 20:20
Kαταιγίδα, Σχεδόν νεφελώδης
Kαταιγίδα, Σχεδόν νεφελώδης
 Ανεμοι από ΑΝΑ
Ανεμος: ΑΝΑ 9 km/h
Θερμοκρασία: 21°C
Σημείο Δρόσου: 18°C
Υγρασία: 83%
Βαρόμετρο: 1013 hPa
Περίληψη: Kαταιγίδα
Νέφωση: Σχεδόν νεφελώδης
Ορατότητα: 10 km
Λεπτομέρειες Νεφών: Διάσπαρτα Νέφη 610 m
Διάσπαρτα Νέφη 762 m
Σχεδόν νεφελώδης 2438 m
2018/06/23 17:20 LGKV 231720Z 11005KT 9999 TS FEW020CB FEW025TCU BKN080 21/18 Q1013
 
LGSK - Skiathos Island-Elev 15m
Απόσταση από σταθμό: ΝΝΑ 168km
Ενημερώθηκε: 23/06/2018 19:50
Ασθενές ψιλόβροχο, Μερικώς νεφελώδης
Ασθενές ψιλόβροχο, Μερικώς νεφελώδης
 Ανεμοι από Β
Ανεμος: Β 13 km/h
Θερμοκρασία: 23°C
Σημείο Δρόσου: 15°C
Υγρασία: 61%
Βαρόμετρο: 1012 hPa
Περίληψη: Light Drizzle
Νέφωση: Μερικώς νεφελώδης
Ορατότητα: 10 km
Λεπτομέρειες Νεφών: Διάσπαρτα Νέφη 610 m
Μερικώς νεφελώδης 914 m
2018/06/23 16:50 LGSK 231650Z 01007KT 9999 -DZ FEW020 SCT030 23/15 Q1012
LGLM - Limnos Island-Elev 5m
Απόσταση από σταθμό: ΑΝΑ 210km
Ενημερώθηκε: 23/06/2018 20:20
Μερικώς νεφελώδης
Μερικώς νεφελώδης
 Ανεμοι από ΒΑ
Ανεμος: ΒΑ 26 km/h
Θερμοκρασία: 23°C
Σημείο Δρόσου: 15°C
Υγρασία: 61%
Βαρόμετρο: 1012 hPa
Νέφωση: Μερικώς νεφελώδης
Ορατότητα: 10 km
Λεπτομέρειες Νεφών: Διάσπαρτα Νέφη 549 m
Μερικώς νεφελώδης 914 m
2018/06/23 17:20 LGLM 231720Z 05014KT 9999 FEW018 SCT030 23/15 Q1012
 
LGMT - Mitilini Island-Elev 17m
Απόσταση από σταθμό: ΑΝΑ 358km
Ενημερώθηκε: 23/06/2018 20:20
Διάσπαρτα Νέφη
Διάσπαρτα Νέφη
 Ανεμοι από ΒΔ
Ανεμος: ΒΔ 7 km/h
Θερμοκρασία: 28°C
Δείκτης Δυσφορίας: 28°C
Σημείο Δρόσου: 17°C
Υγρασία: 51%
Βαρόμετρο: 1010 hPa
Νέφωση: Διάσπαρτα Νέφη
Ορατότητα: 10 km
Λεπτομέρειες Νεφών: Διάσπαρτα Νέφη 762 m
2018/06/23 17:20 LGMT 231720Z 31004KT 230V360 9999 FEW025 28/17 Q1010
LGSY - Skiros Island-Elev 15m
Απόσταση από σταθμό: ΝΑ 227km
Ενημερώθηκε: 23/06/2018 19:50
Μερικώς νεφελώδης
Μερικώς νεφελώδης
 Ανεμοι από ΒΔ
Ανεμος: ΒΔ 26 km/h
Θερμοκρασία: 24°C
Σημείο Δρόσου: 18°C
Υγρασία: 69%
Βαρόμετρο: 1012 hPa
Νέφωση: Μερικώς νεφελώδης
Ορατότητα: 10 km
Λεπτομέρειες Νεφών: Διάσπαρτα Νέφη 457 m
Μερικώς νεφελώδης 610 m
2018/06/23 16:50 LGSY 231650Z 31014KT 9999 FEW015 SCT020 24/18 Q1012 RMK BKN200 BLU
 
LGKZ - Kozani-Elev 628m
Απόσταση από σταθμό: ΔΝΔ 102km
Ενημερώθηκε: 23/06/2018 19:50
Μερικώς νεφελώδης
Μερικώς νεφελώδης
 Ανεμοι από Β
Ανεμος: Β 24 km/h
Θερμοκρασία: 20°C
Σημείο Δρόσου: 8°C
Υγρασία: 46%
Βαρόμετρο: 1015 hPa
Νέφωση: Μερικώς νεφελώδης
Ορατότητα: 10 km
Λεπτομέρειες Νεφών: Μερικώς νεφελώδης 762 m
Μερικώς νεφελώδης 2134 m
2018/06/23 16:50 LGKZ 231650Z 35013KT 9999 SCT025 SCT070 20/08 Q1015
LGIO - Ioannina-Elev 476m
Απόσταση από σταθμό: ΔΝΔ 209km
Ενημερώθηκε: 23/06/2018 20:20
Μερικώς νεφελώδης
Μερικώς νεφελώδης
 Ανεμοι από μεταβλητός
Ανεμος: μεταβλητός 0 km/h
Θερμοκρασία: 23°C
Σημείο Δρόσου: 18°C
Υγρασία: 74%
Βαρόμετρο: 1013 hPa
Νέφωση: Μερικώς νεφελώδης
Ορατότητα: 10 km
Λεπτομέρειες Νεφών: Διάσπαρτα Νέφη 1067 m
Μερικώς νεφελώδης 1219 m
2018/06/23 17:20 LGIO 231720Z /////KT 9999 FEW035 SCT040 23/18 Q1013
 
LGZA - Zakinthos-Elev 3m
Απόσταση από σταθμό: ΝΝΔ 367km
Ενημερώθηκε: 23/06/2018 20:20
Διάσπαρτα Νέφη
Διάσπαρτα Νέφη
 Ανεμοι από ΒΒΔ
Ανεμος: ΒΒΔ 11 km/h
Θερμοκρασία: 26°C
Σημείο Δρόσου: 21°C
Υγρασία: 74%
Βαρόμετρο: 1012 hPa
Νέφωση: Διάσπαρτα Νέφη
Ορατότητα: 10 km
Λεπτομέρειες Νεφών: Διάσπαρτα Νέφη 610 m
2018/06/23 17:20 LGZA 231720Z 33006KT 9999 FEW020 26/21 Q1012
LGKR - Corfu Island-Elev 2m
Απόσταση από σταθμό: ΔΝΔ 282km
Ενημερώθηκε: 23/06/2018 19:50
Διάσπαρτα Νέφη
Διάσπαρτα Νέφη
 Ανεμοι από ΒΔ
Ανεμος: ΒΔ 13 km/h
Θερμοκρασία: 26°C
Σημείο Δρόσου: 20°C
Υγρασία: 70%
Βαρόμετρο: 1011 hPa
Νέφωση: Διάσπαρτα Νέφη
Ορατότητα: 10 km
Λεπτομέρειες Νεφών: Διάσπαρτα Νέφη 610 m
2018/06/23 16:50 LGKR 231650Z 32007KT 9999 FEW020 26/20 Q1011 NOSIG
 
LGSO - Syros Island-Elev 72m
Απόσταση από σταθμό: ΝΝΑ 397km
Ενημερώθηκε: 23/06/2018 19:50
Διάσπαρτα Νέφη
Διάσπαρτα Νέφη
 Ανεμοι από Β
Ανεμος: Β 19 km/h
Θερμοκρασία: 27°C
Δείκτης Δυσφορίας: 28°C
Σημείο Δρόσου: 19°C
Υγρασία: 62%
Βαρόμετρο: 1011 hPa
Νέφωση: Διάσπαρτα Νέφη
Ορατότητα: 10 km
Λεπτομέρειες Νεφών: Διάσπαρτα Νέφη 549 m
2018/06/23 16:50 LGSO 231650Z 36010KT 9999 FEW018 27/19 Q1011
LGMK - Mikonos Island-Elev 123m
Απόσταση από σταθμό: ΝΝΑ 412km
Ενημερώθηκε: 23/06/2018 20:20
Διάσπαρτα Νέφη
Διάσπαρτα Νέφη
 Ανεμοι από Β
Ανεμος: Β 24 km/h
Θερμοκρασία: 26°C
Σημείο Δρόσου: 20°C
Υγρασία: 70%
Βαρόμετρο: 1011 hPa
Νέφωση: Διάσπαρτα Νέφη
Ορατότητα: 10 km
Λεπτομέρειες Νεφών: Διάσπαρτα Νέφη 244 m
2018/06/23 17:20 LGMK 231720Z 36013KT 9999 FEW008 26/20 Q1011
 
LGSR - Santorini Island-Elev 40m
Απόσταση από σταθμό: ΝΝΑ 520km
Ενημερώθηκε: 23/06/2018 19:50
Αίθριος
Αίθριος
 Ανεμοι από Δ
Ανεμος: Δ 22 km/h
Θερμοκρασία: 25°C
Σημείο Δρόσου: 19°C
Υγρασία: 69%
Βαρόμετρο: 1010 hPa
Περίληψη: Αίθριος
Ορατότητα: πάνω από 10 km
2018/06/23 16:50 LGSR 231650Z 26012KT CAVOK 25/19 Q1010
LGKL - Kalamata-Elev 8m
Απόσταση από σταθμό: Ν 405km
Ενημερώθηκε: 23/06/2018 20:20
Διάσπαρτα Νέφη
Διάσπαρτα Νέφη
 Ανεμοι από Β
Ανεμος: Β 17 km/h
Θερμοκρασία: 26°C
Σημείο Δρόσου: 16°C
Υγρασία: 54%
Βαρόμετρο: 1011 hPa
Νέφωση: Διάσπαρτα Νέφη
Ορατότητα: 10 km
Λεπτομέρειες Νεφών: Διάσπαρτα Νέφη 762 m
2018/06/23 17:20 LGKL 231720Z 36009KT 9999 FEW025 26/16 Q1011
 
LGIR - Iraklion/Crete-Elev 5m
Απόσταση από σταθμό: ΝΝΑ 622km
Ενημερώθηκε: 23/06/2018 19:50
Διάσπαρτα Νέφη
Διάσπαρτα Νέφη
 Ανεμοι από ΒΔ
Ανεμος: ΒΔ 30 km/h
Θερμοκρασία: 26°C
Σημείο Δρόσου: 21°C
Υγρασία: 74%
Βαρόμετρο: 1010 hPa
Νέφωση: Διάσπαρτα Νέφη
Ορατότητα: 10 km
Λεπτομέρειες Νεφών: Διάσπαρτα Νέφη 762 m
2018/06/23 16:50 LGIR 231650Z 31016KT 9999 FEW025 26/21 Q1010 NOSIG
LGRP - Rhodes-Elev 5m
Απόσταση από σταθμό: ΝΑ 649km
Ενημερώθηκε: 23/06/2018 19:50
Διάσπαρτα Νέφη
Διάσπαρτα Νέφη
 Ανεμοι από ΔΝΔ
Ανεμος: ΔΝΔ 30 km/h
Θερμοκρασία: 26°C
Σημείο Δρόσου: 24°C
Υγρασία: 89%
Βαρόμετρο: 1008 hPa
Νέφωση: Διάσπαρτα Νέφη
Ορατότητα: 10 km
Λεπτομέρειες Νεφών: Διάσπαρτα Νέφη 305 m
2018/06/23 16:50 LGRP 231650Z 25016KT 9999 FEW010 26/24 Q1008 NOSIG
 
LWOH - Ohrid/FYROM-Elev 761m
Απόσταση από σταθμό: ΔΒΔ 188km
Ενημερώθηκε: 23/06/2018 15:00
ΜΗ Ενημερωμένο METAR!
Σχεδόν νεφελώδης
Σχεδόν νεφελώδης
 Ανεμοι από ΒΒΔ
Ανεμος: ΒΒΔ 17 km/h
Θερμοκρασία: 16°C
Σημείο Δρόσου: 9°C
Υγρασία: 63%
Βαρόμετρο: 1018 hPa
Νέφωση: Σχεδόν νεφελώδης
Ορατότητα: 10 km
Λεπτομέρειες Νεφών: Μερικώς νεφελώδης 1372 m
Σχεδόν νεφελώδης 2134 m
2018/06/23 12:00 LWOH 231200Z 34009KT 9999 SCT045 BKN070 16/09 Q1018
LBSF - Sofia/Bulgaria-Elev 595m
Απόσταση από σταθμό: Β 227km
Ενημερώθηκε: 23/06/2018 20:00
Σχεδόν νεφελώδης
Σχεδόν νεφελώδης
 Ανεμοι από Δ
Ανεμος: Δ 22 km/h
Θερμοκρασία: 18°C
Σημείο Δρόσου: 6°C
Υγρασία: 46%
Βαρόμετρο: 1017 hPa
Νέφωση: Σχεδόν νεφελώδης
Ορατότητα: 10 km
Λεπτομέρειες Νεφών: Σχεδόν νεφελώδης 1554 m
2018/06/23 17:00 LBSF 231700Z 28012KT 9999 BKN051 18/06 Q1017 NOSIG